sensor_id;sensor_type;location;lat;lon;timestamp;noise_LAeq;noise_LA_min;noise_LA_max;noise_LA01;noise_LA95
69608;Laerm;57251;52.248;4.812;2023-02-07T00:06:57;41.39;30.36;53.55;;
69608;Laerm;57251;52.248;4.812;2023-02-07T00:07:12;32.27;30.65;37.10;;
69608;Laerm;57251;52.248;4.812;2023-02-07T00:07:37;33.45;30.89;39.60;;
69608;Laerm;57251;52.248;4.812;2023-02-07T00:08:07;33.41;31.12;39.09;;
69608;Laerm;57251;52.248;4.812;2023-02-07T00:08:44;32.88;30.89;37.31;;
69608;Laerm;57251;52.248;4.812;2023-02-07T00:10:53;33.22;30.93;38.74;;
69608;Laerm;57251;52.248;4.812;2023-02-07T00:11:29;35.24;31.49;40.82;;
69608;Laerm;57251;52.248;4.812;2023-02-07T00:12:14;36.78;31.87;44.05;;
69608;Laerm;57251;52.248;4.812;2023-02-07T00:13:31;34.22;31.37;38.00;;
69608;Laerm;57251;52.248;4.812;2023-02-07T00:14:13;34.38;32.01;38.49;;
69608;Laerm;57251;52.248;4.812;2023-02-07T00:14:26;36.73;32.03;40.80;;
69608;Laerm;57251;52.248;4.812;2023-02-07T00:14:37;34.06;31.82;38.49;;
69608;Laerm;57251;52.248;4.812;2023-02-07T00:14:58;33.30;31.35;35.80;;
69608;Laerm;57251;52.248;4.812;2023-02-07T00:15:40;36.06;31.05;44.46;;
69608;Laerm;57251;52.248;4.812;2023-02-07T00:16:05;33.68;31.84;35.75;;
69608;Laerm;57251;52.248;4.812;2023-02-07T00:16:20;34.16;31.76;36.00;;
69608;Laerm;57251;52.248;4.812;2023-02-07T00:17:26;34.86;31.37;40.34;;
69608;Laerm;57251;52.248;4.812;2023-02-07T00:17:40;35.15;32.12;38.31;;
69608;Laerm;57251;52.248;4.812;2023-02-07T00:17:56;34.28;31.69;37.75;;
69608;Laerm;57251;52.248;4.812;2023-02-07T00:18:21;32.90;30.40;39.19;;
69608;Laerm;57251;52.248;4.812;2023-02-07T00:18:48;31.43;30.01;36.99;;
69608;Laerm;57251;52.248;4.812;2023-02-07T00:19:17;31.70;30.11;34.73;;
69608;Laerm;57251;52.248;4.812;2023-02-07T00:19:31;33.84;31.60;37.07;;
69608;Laerm;57251;52.248;4.812;2023-02-07T00:21:10;33.10;30.55;39.62;;
69608;Laerm;57251;52.248;4.812;2023-02-07T00:27:22;33.56;30.86;38.92;;
69608;Laerm;57251;52.248;4.812;2023-02-07T00:30:22;43.10;30.63;64.41;;
69608;Laerm;57251;52.248;4.812;2023-02-07T00:30:42;36.03;31.47;40.73;;
69608;Laerm;57251;52.248;4.812;2023-02-07T00:31:02;31.78;30.50;34.76;;
69608;Laerm;57251;52.248;4.812;2023-02-07T00:31:37;32.99;30.17;43.19;;
69608;Laerm;57251;52.248;4.812;2023-02-07T00:32:07;34.97;31.12;47.50;;
69608;Laerm;57251;52.248;4.812;2023-02-07T00:32:21;35.77;32.99;46.43;;
69608;Laerm;57251;52.248;4.812;2023-02-07T00:32:34;35.92;32.32;42.00;;
69608;Laerm;57251;52.248;4.812;2023-02-07T00:33:16;34.78;31.34;41.00;;
69608;Laerm;57251;52.248;4.812;2023-02-07T00:33:41;33.07;30.45;40.28;;
69608;Laerm;57251;52.248;4.812;2023-02-07T00:34:07;32.61;30.27;39.52;;
69608;Laerm;57251;52.248;4.812;2023-02-07T00:34:47;33.81;30.87;38.66;;
69608;Laerm;57251;52.248;4.812;2023-02-07T00:35:33;32.73;30.27;37.52;;
69608;Laerm;57251;52.248;4.812;2023-02-07T00:36:00;32.05;30.25;36.46;;
69608;Laerm;57251;52.248;4.812;2023-02-07T00:36:12;34.09;30.75;37.99;;
69608;Laerm;57251;52.248;4.812;2023-02-07T00:36:27;33.76;31.22;39.93;;
69608;Laerm;57251;52.248;4.812;2023-02-07T00:38:16;35.21;30.37;44.15;;
69608;Laerm;57251;52.248;4.812;2023-02-07T00:38:17;33.74;30.87;38.36;;
69608;Laerm;57251;52.248;4.812;2023-02-07T00:38:26;33.32;31.22;36.93;;
69608;Laerm;57251;52.248;4.812;2023-02-07T00:38:43;33.69;30.37;39.08;;
69608;Laerm;57251;52.248;4.812;2023-02-07T00:39:00;32.19;29.73;36.69;;
69608;Laerm;57251;52.248;4.812;2023-02-07T00:39:26;35.30;30.36;44.89;;
69608;Laerm;57251;52.248;4.812;2023-02-07T00:39:36;33.53;30.19;40.91;;
69608;Laerm;57251;52.248;4.812;2023-02-07T00:40:20;35.78;30.37;40.78;;
69608;Laerm;57251;52.248;4.812;2023-02-07T00:40:34;34.62;31.93;38.26;;
69608;Laerm;57251;52.248;4.812;2023-02-07T00:40:48;33.68;31.54;38.25;;
69608;Laerm;57251;52.248;4.812;2023-02-07T00:41:43;33.35;30.61;46.00;;
69608;Laerm;57251;52.248;4.812;2023-02-07T00:43:34;35.17;30.16;44.89;;
69608;Laerm;57251;52.248;4.812;2023-02-07T00:43:44;31.58;30.17;34.18;;
69608;Laerm;57251;52.248;4.812;2023-02-07T00:44:26;32.33;30.34;35.59;;
69608;Laerm;57251;52.248;4.812;2023-02-07T00:45:22;40.74;30.15;60.26;;
69608;Laerm;57251;52.248;4.812;2023-02-07T01:09:41;32.12;30.10;40.05;;
69608;Laerm;57251;52.248;4.812;2023-02-07T01:12:52;35.07;30.93;50.92;;
69608;Laerm;57251;52.248;4.812;2023-02-07T01:13:54;32.44;30.39;38.10;;
69608;Laerm;57251;52.248;4.812;2023-02-07T01:20:51;33.50;30.57;40.55;;
69608;Laerm;57251;52.248;4.812;2023-02-07T01:21:12;32.40;30.74;38.33;;
69608;Laerm;57251;52.248;4.812;2023-02-07T01:22:00;32.72;30.69;36.57;;
69608;Laerm;57251;52.248;4.812;2023-02-07T01:22:32;32.08;30.26;35.79;;
69608;Laerm;57251;52.248;4.812;2023-02-07T01:23:10;32.68;30.80;35.39;;
69608;Laerm;57251;52.248;4.812;2023-02-07T01:23:42;32.49;30.98;35.41;;
69608;Laerm;57251;52.248;4.812;2023-02-07T01:24:42;32.00;30.18;34.47;;
69608;Laerm;57251;52.248;4.812;2023-02-07T01:25:06;32.05;30.47;37.47;;
69608;Laerm;57251;52.248;4.812;2023-02-07T01:25:43;31.59;30.10;35.75;;
69608;Laerm;57251;52.248;4.812;2023-02-07T01:25:56;31.71;30.32;34.13;;
69608;Laerm;57251;52.248;4.812;2023-02-07T01:26:09;31.77;30.30;36.19;;
69608;Laerm;57251;52.248;4.812;2023-02-07T01:26:56;31.59;29.68;40.94;;
69608;Laerm;57251;52.248;4.812;2023-02-07T01:32:09;32.22;30.22;39.16;;
69608;Laerm;57251;52.248;4.812;2023-02-07T01:32:11;31.77;30.19;35.36;;
69608;Laerm;57251;52.248;4.812;2023-02-07T01:33:58;35.38;30.43;53.31;;
69608;Laerm;57251;52.248;4.812;2023-02-07T01:36:03;36.85;30.33;55.70;;
69608;Laerm;57251;52.248;4.812;2023-02-07T01:40:27;39.25;30.64;58.27;;
69608;Laerm;57251;52.248;4.812;2023-02-07T01:41:49;33.16;30.38;45.31;;
69608;Laerm;57251;52.248;4.812;2023-02-07T01:45:57;34.12;31.00;45.70;;
69608;Laerm;57251;52.248;4.812;2023-02-07T01:46:35;37.21;32.64;44.10;;
69608;Laerm;57251;52.248;4.812;2023-02-07T01:47:53;34.11;30.70;38.01;;
69608;Laerm;57251;52.248;4.812;2023-02-07T02:02:51;32.54;30.45;36.98;;
69608;Laerm;57251;52.248;4.812;2023-02-07T02:03:05;33.81;31.09;38.76;;
69608;Laerm;57251;52.248;4.812;2023-02-07T02:03:19;35.14;31.21;43.01;;
69608;Laerm;57251;52.248;4.812;2023-02-07T06:06:45;42.66;39.69;52.77;;
69608;Laerm;57251;52.248;4.812;2023-02-07T06:08:25;55.10;40.37;62.72;;
69608;Laerm;57251;52.248;4.812;2023-02-07T06:08:36;52.52;46.52;57.43;;
69608;Laerm;57251;52.248;4.812;2023-02-07T06:08:52;45.73;42.51;51.76;;
69608;Laerm;57251;52.248;4.812;2023-02-07T06:09:14;44.82;42.63;49.81;;
69608;Laerm;57251;52.248;4.812;2023-02-07T06:09:42;44.93;41.38;53.20;;
69608;Laerm;57251;52.248;4.812;2023-02-07T06:10:05;44.18;41.28;49.36;;
69608;Laerm;57251;52.248;4.812;2023-02-07T06:10:16;43.51;40.96;45.86;;
69608;Laerm;57251;52.248;4.812;2023-02-07T06:10:29;43.98;41.43;47.85;;
69608;Laerm;57251;52.248;4.812;2023-02-07T06:11:11;43.56;40.40;47.67;;
69608;Laerm;57251;52.248;4.812;2023-02-07T06:11:24;45.10;42.88;47.61;;
69608;Laerm;57251;52.248;4.812;2023-02-07T06:11:34;44.58;41.19;47.40;;
69608;Laerm;57251;52.248;4.812;2023-02-07T06:11:45;42.58;40.08;48.46;;
69608;Laerm;57251;52.248;4.812;2023-02-07T06:11:55;42.72;40.62;54.54;;
69608;Laerm;57251;52.248;4.812;2023-02-07T06:12:08;42.09;40.12;44.91;;
69608;Laerm;57251;52.248;4.812;2023-02-07T06:12:26;43.08;39.81;46.74;;
69608;Laerm;57251;52.248;4.812;2023-02-07T06:12:50;43.92;40.50;49.12;;
69608;Laerm;57251;52.248;4.812;2023-02-07T06:13:03;43.37;41.07;47.12;;
69608;Laerm;57251;52.248;4.812;2023-02-07T06:13:16;43.88;41.70;46.54;;
69608;Laerm;57251;52.248;4.812;2023-02-07T06:28:20;49.79;45.01;55.63;;
69608;Laerm;57251;52.248;4.812;2023-02-07T06:53:28;60.30;48.08;68.62;;
69608;Laerm;57251;52.248;4.812;2023-02-07T06:53:39;66.00;59.99;69.08;;
69608;Laerm;57251;52.248;4.812;2023-02-07T06:53:49;58.20;51.52;63.04;;
69608;Laerm;57251;52.248;4.812;2023-02-07T06:54:02;51.34;47.77;55.05;;
69608;Laerm;57251;52.248;4.812;2023-02-07T06:54:17;53.60;48.75;59.29;;
69608;Laerm;57251;52.248;4.812;2023-02-07T06:54:27;54.95;50.19;60.38;;
69608;Laerm;57251;52.248;4.812;2023-02-07T06:54:38;70.41;58.06;75.85;;
69608;Laerm;57251;52.248;4.812;2023-02-07T06:54:48;72.13;69.09;75.12;;
69608;Laerm;57251;52.248;4.812;2023-02-07T06:54:58;67.68;60.66;73.73;;
69608;Laerm;57251;52.248;4.812;2023-02-07T06:55:08;58.93;51.52;64.13;;
69608;Laerm;57251;52.248;4.812;2023-02-07T06:55:19;53.84;47.08;66.01;;
69608;Laerm;57251;52.248;4.812;2023-02-07T06:55:30;51.24;44.33;63.69;;
69608;Laerm;57251;52.248;4.812;2023-02-07T06:55:40;47.11;43.84;55.34;;
69608;Laerm;57251;52.248;4.812;2023-02-07T06:55:51;46.43;42.84;53.88;;
69608;Laerm;57251;52.248;4.812;2023-02-07T06:56:01;47.43;44.36;53.13;;
69608;Laerm;57251;52.248;4.812;2023-02-07T06:56:11;49.48;46.59;55.33;;
69608;Laerm;57251;52.248;4.812;2023-02-07T06:56:21;50.65;47.26;55.82;;
69608;Laerm;57251;52.248;4.812;2023-02-07T06:56:32;50.70;47.77;53.76;;
69608;Laerm;57251;52.248;4.812;2023-02-07T06:56:42;52.55;48.27;66.82;;
69608;Laerm;57251;52.248;4.812;2023-02-07T06:56:54;50.63;47.72;54.77;;
69608;Laerm;57251;52.248;4.812;2023-02-07T06:57:05;50.17;47.24;57.71;;
69608;Laerm;57251;52.248;4.812;2023-02-07T06:57:16;52.63;48.15;55.65;;
69608;Laerm;57251;52.248;4.812;2023-02-07T06:57:26;59.19;51.08;64.22;;
69608;Laerm;57251;52.248;4.812;2023-02-07T06:57:36;65.06;60.23;68.59;;
69608;Laerm;57251;52.248;4.812;2023-02-07T06:57:46;59.99;51.12;66.56;;
69608;Laerm;57251;52.248;4.812;2023-02-07T06:57:57;52.70;47.29;56.69;;
69608;Laerm;57251;52.248;4.812;2023-02-07T06:58:07;51.01;46.69;55.28;;
69608;Laerm;57251;52.248;4.812;2023-02-07T06:58:17;50.47;46.72;55.14;;
69608;Laerm;57251;52.248;4.812;2023-02-07T06:58:27;52.16;47.98;56.49;;
69608;Laerm;57251;52.248;4.812;2023-02-07T06:58:38;51.46;48.02;55.52;;
69608;Laerm;57251;52.248;4.812;2023-02-07T06:58:48;56.94;48.79;63.41;;
69608;Laerm;57251;52.248;4.812;2023-02-07T06:58:58;62.63;57.64;66.70;;
69608;Laerm;57251;52.248;4.812;2023-02-07T06:59:09;63.98;57.98;68.15;;
69608;Laerm;57251;52.248;4.812;2023-02-07T06:59:19;56.59;48.86;61.28;;
69608;Laerm;57251;52.248;4.812;2023-02-07T06:59:29;49.89;45.74;53.82;;
69608;Laerm;57251;52.248;4.812;2023-02-07T06:59:39;47.04;43.34;58.68;;
69608;Laerm;57251;52.248;4.812;2023-02-07T06:59:50;45.81;42.64;55.37;;
69608;Laerm;57251;52.248;4.812;2023-02-07T07:00:00;45.78;42.54;53.61;;
69608;Laerm;57251;52.248;4.812;2023-02-07T07:00:11;50.21;44.05;60.09;;
69608;Laerm;57251;52.248;4.812;2023-02-07T07:00:22;55.56;48.70;59.03;;
69608;Laerm;57251;52.248;4.812;2023-02-07T07:00:32;64.86;57.08;69.75;;
69608;Laerm;57251;52.248;4.812;2023-02-07T07:00:42;63.36;56.24;68.75;;
69608;Laerm;57251;52.248;4.812;2023-02-07T07:00:53;54.32;49.51;59.07;;
69608;Laerm;57251;52.248;4.812;2023-02-07T07:01:03;49.93;47.52;52.36;;
69608;Laerm;57251;52.248;4.812;2023-02-07T07:01:13;46.35;42.74;48.90;;
69608;Laerm;57251;52.248;4.812;2023-02-07T07:01:29;44.72;41.97;49.64;;
69608;Laerm;57251;52.248;4.812;2023-02-07T07:01:39;53.31;45.13;59.31;;
69608;Laerm;57251;52.248;4.812;2023-02-07T07:01:49;47.96;43.00;54.66;;
69608;Laerm;57251;52.248;4.812;2023-02-07T07:01:59;43.90;41.69;46.94;;
69608;Laerm;57251;52.248;4.812;2023-02-07T07:02:11;44.28;41.91;49.52;;
69608;Laerm;57251;52.248;4.812;2023-02-07T07:02:21;45.42;42.22;57.06;;
69608;Laerm;57251;52.248;4.812;2023-02-07T07:02:31;44.74;43.15;46.85;;
69608;Laerm;57251;52.248;4.812;2023-02-07T07:02:42;45.31;42.64;49.42;;
69608;Laerm;57251;52.248;4.812;2023-02-07T07:02:52;53.99;46.15;61.52;;
69608;Laerm;57251;52.248;4.812;2023-02-07T07:03:02;49.72;44.95;54.14;;
69608;Laerm;57251;52.248;4.812;2023-02-07T07:03:13;46.35;43.10;53.52;;
69608;Laerm;57251;52.248;4.812;2023-02-07T07:03:24;48.27;43.75;59.85;;
69608;Laerm;57251;52.248;4.812;2023-02-07T07:03:37;49.27;45.25;59.63;;
69608;Laerm;57251;52.248;4.812;2023-02-07T07:03:48;45.85;43.43;55.59;;
69608;Laerm;57251;52.248;4.812;2023-02-07T07:03:58;46.24;43.15;53.98;;
69608;Laerm;57251;52.248;4.812;2023-02-07T07:04:08;47.28;44.56;52.38;;
69608;Laerm;57251;52.248;4.812;2023-02-07T07:04:18;50.80;46.27;55.63;;
69608;Laerm;57251;52.248;4.812;2023-02-07T07:04:29;60.30;52.32;67.22;;
69608;Laerm;57251;52.248;4.812;2023-02-07T07:04:40;67.18;61.46;73.03;;
69608;Laerm;57251;52.248;4.812;2023-02-07T07:04:50;60.66;53.60;66.04;;
69608;Laerm;57251;52.248;4.812;2023-02-07T07:05:00;53.27;47.16;57.02;;
69608;Laerm;57251;52.248;4.812;2023-02-07T07:05:10;49.18;45.08;54.81;;
69608;Laerm;57251;52.248;4.812;2023-02-07T07:05:20;49.24;43.51;67.55;;
69608;Laerm;57251;52.248;4.812;2023-02-07T07:05:31;53.23;44.33;64.77;;
69608;Laerm;57251;52.248;4.812;2023-02-07T07:05:42;53.46;50.45;59.00;;
69608;Laerm;57251;52.248;4.812;2023-02-07T07:06:01;58.69;52.70;69.10;;
69608;Laerm;57251;52.248;4.812;2023-02-07T07:06:12;61.69;54.68;68.21;;
69608;Laerm;57251;52.248;4.812;2023-02-07T07:06:22;58.16;53.46;62.44;;
69608;Laerm;57251;52.248;4.812;2023-02-07T07:06:33;54.34;51.62;57.56;;
69608;Laerm;57251;52.248;4.812;2023-02-07T07:06:46;56.73;50.88;76.80;;
69608;Laerm;57251;52.248;4.812;2023-02-07T07:06:57;55.26;51.19;63.14;;
69608;Laerm;57251;52.248;4.812;2023-02-07T07:07:07;58.05;52.15;63.65;;
69608;Laerm;57251;52.248;4.812;2023-02-07T07:07:17;64.24;60.20;68.47;;
69608;Laerm;57251;52.248;4.812;2023-02-07T07:07:28;65.29;59.16;68.75;;
69608;Laerm;57251;52.248;4.812;2023-02-07T07:07:38;59.89;54.95;65.62;;
69608;Laerm;57251;52.248;4.812;2023-02-07T07:07:48;58.22;52.63;65.26;;
69608;Laerm;57251;52.248;4.812;2023-02-07T07:08:00;59.09;50.12;68.68;;
69608;Laerm;57251;52.248;4.812;2023-02-07T07:08:11;60.69;51.64;68.63;;
69608;Laerm;57251;52.248;4.812;2023-02-07T07:08:23;58.37;48.73;67.07;;
69608;Laerm;57251;52.248;4.812;2023-02-07T07:08:34;54.70;48.84;61.47;;
69608;Laerm;57251;52.248;4.812;2023-02-07T07:08:44;55.73;48.64;63.94;;
69608;Laerm;57251;52.248;4.812;2023-02-07T07:08:55;57.23;50.41;63.88;;
69608;Laerm;57251;52.248;4.812;2023-02-07T07:09:05;54.27;49.98;62.25;;
69608;Laerm;57251;52.248;4.812;2023-02-07T07:09:16;54.04;48.82;63.44;;
69608;Laerm;57251;52.248;4.812;2023-02-07T07:09:26;55.09;49.47;61.66;;
69608;Laerm;57251;52.248;4.812;2023-02-07T07:09:37;55.65;49.84;61.57;;
69608;Laerm;57251;52.248;4.812;2023-02-07T07:09:47;55.20;49.66;62.07;;
69608;Laerm;57251;52.248;4.812;2023-02-07T07:09:58;52.10;48.93;58.70;;
69608;Laerm;57251;52.248;4.812;2023-02-07T07:10:08;53.34;49.08;59.01;;
69608;Laerm;57251;52.248;4.812;2023-02-07T07:10:18;53.97;48.59;60.14;;
69608;Laerm;57251;52.248;4.812;2023-02-07T07:10:28;54.25;48.71;60.66;;
69608;Laerm;57251;52.248;4.812;2023-02-07T07:10:39;52.02;48.76;57.69;;
69608;Laerm;57251;52.248;4.812;2023-02-07T07:10:49;52.11;48.02;55.29;;
69608;Laerm;57251;52.248;4.812;2023-02-07T07:11:00;51.37;48.41;56.85;;
69608;Laerm;57251;52.248;4.812;2023-02-07T07:11:10;51.04;48.46;54.02;;
69608;Laerm;57251;52.248;4.812;2023-02-07T07:11:20;51.65;48.63;54.76;;
69608;Laerm;57251;52.248;4.812;2023-02-07T07:11:31;53.13;49.58;56.57;;
69608;Laerm;57251;52.248;4.812;2023-02-07T07:11:41;53.94;50.78;58.17;;
69608;Laerm;57251;52.248;4.812;2023-02-07T07:11:57;58.47;51.77;61.76;;
69608;Laerm;57251;52.248;4.812;2023-02-07T07:12:07;58.13;54.65;62.56;;
69608;Laerm;57251;52.248;4.812;2023-02-07T07:12:18;53.72;50.29;56.74;;
69608;Laerm;57251;52.248;4.812;2023-02-07T07:12:31;52.05;49.51;54.70;;
69608;Laerm;57251;52.248;4.812;2023-02-07T07:12:42;50.21;47.78;53.47;;
69608;Laerm;57251;52.248;4.812;2023-02-07T07:12:52;49.34;46.41;62.20;;
69608;Laerm;57251;52.248;4.812;2023-02-07T07:13:03;52.32;48.79;62.59;;
69608;Laerm;57251;52.248;4.812;2023-02-07T07:13:15;57.92;51.47;61.60;;
69608;Laerm;57251;52.248;4.812;2023-02-07T07:13:26;66.27;59.68;70.54;;
69608;Laerm;57251;52.248;4.812;2023-02-07T07:13:36;65.48;58.04;71.37;;
69608;Laerm;57251;52.248;4.812;2023-02-07T07:13:46;58.52;53.38;63.16;;
69608;Laerm;57251;52.248;4.812;2023-02-07T07:13:59;52.02;46.50;58.73;;
69608;Laerm;57251;52.248;4.812;2023-02-07T07:14:10;46.30;42.80;54.56;;
69608;Laerm;57251;52.248;4.812;2023-02-07T07:14:21;46.48;42.64;54.25;;
69608;Laerm;57251;52.248;4.812;2023-02-07T07:14:31;57.92;46.31;65.97;;
69608;Laerm;57251;52.248;4.812;2023-02-07T07:14:42;67.03;61.61;70.38;;
69608;Laerm;57251;52.248;4.812;2023-02-07T07:14:53;65.15;57.14;69.41;;
69608;Laerm;57251;52.248;4.812;2023-02-07T07:15:06;56.25;49.01;62.84;;
69608;Laerm;57251;52.248;4.812;2023-02-07T07:15:19;49.41;44.44;55.96;;
69608;Laerm;57251;52.248;4.812;2023-02-07T07:15:29;46.24;42.17;52.39;;
69608;Laerm;57251;52.248;4.812;2023-02-07T07:15:40;48.48;42.21;55.69;;
69608;Laerm;57251;52.248;4.812;2023-02-07T07:15:52;52.54;46.44;61.42;;
69608;Laerm;57251;52.248;4.812;2023-02-07T07:16:06;61.16;53.50;71.48;;
69608;Laerm;57251;52.248;4.812;2023-02-07T07:16:16;63.86;55.09;71.85;;
69608;Laerm;57251;52.248;4.812;2023-02-07T07:16:27;61.23;52.23;70.19;;
69608;Laerm;57251;52.248;4.812;2023-02-07T07:16:37;59.89;46.29;72.62;;
69608;Laerm;57251;52.248;4.812;2023-02-07T07:16:48;60.33;44.60;73.55;;
69608;Laerm;57251;52.248;4.812;2023-02-07T07:16:58;60.88;47.54;71.33;;
69608;Laerm;57251;52.248;4.812;2023-02-07T07:17:08;61.00;49.18;69.44;;
69608;Laerm;57251;52.248;4.812;2023-02-07T07:17:18;65.40;56.66;69.82;;
69608;Laerm;57251;52.248;4.812;2023-02-07T07:17:29;67.76;61.62;74.59;;
69608;Laerm;57251;52.248;4.812;2023-02-07T07:17:39;61.60;56.17;66.42;;
69608;Laerm;57251;52.248;4.812;2023-02-07T07:17:49;55.29;50.66;59.01;;
69608;Laerm;57251;52.248;4.812;2023-02-07T07:18:00;53.61;49.74;57.27;;
69608;Laerm;57251;52.248;4.812;2023-02-07T07:18:10;50.66;46.04;56.72;;
69608;Laerm;57251;52.248;4.812;2023-02-07T07:18:20;54.03;48.71;61.08;;
69608;Laerm;57251;52.248;4.812;2023-02-07T07:18:31;57.23;52.64;63.41;;
69608;Laerm;57251;52.248;4.812;2023-02-07T07:18:41;65.82;59.96;69.72;;
69608;Laerm;57251;52.248;4.812;2023-02-07T07:18:51;63.94;57.42;68.97;;
69608;Laerm;57251;52.248;4.812;2023-02-07T07:19:01;56.30;50.77;61.33;;
69608;Laerm;57251;52.248;4.812;2023-02-07T07:19:15;49.82;44.84;54.44;;
69608;Laerm;57251;52.248;4.812;2023-02-07T07:19:25;57.15;42.49;68.89;;
69608;Laerm;57251;52.248;4.812;2023-02-07T07:19:35;58.36;43.11;69.67;;
69608;Laerm;57251;52.248;4.812;2023-02-07T07:19:46;59.62;46.38;70.54;;
69608;Laerm;57251;52.248;4.812;2023-02-07T07:19:56;62.32;53.53;69.65;;
69608;Laerm;57251;52.248;4.812;2023-02-07T07:20:08;59.97;47.85;69.66;;
69608;Laerm;57251;52.248;4.812;2023-02-07T07:20:18;56.25;43.34;68.87;;
69608;Laerm;57251;52.248;4.812;2023-02-07T07:20:29;55.33;43.36;67.72;;
69608;Laerm;57251;52.248;4.812;2023-02-07T07:20:39;54.96;42.49;67.46;;
69608;Laerm;57251;52.248;4.812;2023-02-07T07:20:53;56.18;42.16;67.35;;
69608;Laerm;57251;52.248;4.812;2023-02-07T07:21:09;60.02;42.60;71.84;;
69608;Laerm;57251;52.248;4.812;2023-02-07T07:21:19;64.20;58.68;71.50;;
69608;Laerm;57251;52.248;4.812;2023-02-07T07:21:29;61.22;49.92;70.23;;
69608;Laerm;57251;52.248;4.812;2023-02-07T07:21:40;59.39;43.43;69.81;;
69608;Laerm;57251;52.248;4.812;2023-02-07T07:21:50;59.10;42.25;69.28;;
69608;Laerm;57251;52.248;4.812;2023-02-07T07:22:00;59.13;42.06;70.65;;
69608;Laerm;57251;52.248;4.812;2023-02-07T07:22:11;59.49;42.27;70.60;;
69608;Laerm;57251;52.248;4.812;2023-02-07T07:22:21;59.21;45.39;70.96;;
69608;Laerm;57251;52.248;4.812;2023-02-07T07:22:34;64.47;52.50;71.13;;
69608;Laerm;57251;52.248;4.812;2023-02-07T07:22:47;65.22;55.68;69.46;;
69608;Laerm;57251;52.248;4.812;2023-02-07T07:22:57;54.22;47.69;60.35;;
69608;Laerm;57251;52.248;4.812;2023-02-07T07:23:10;48.18;43.60;53.00;;
69608;Laerm;57251;52.248;4.812;2023-02-07T07:23:21;47.90;42.96;54.85;;
69608;Laerm;57251;52.248;4.812;2023-02-07T07:23:32;47.91;41.89;56.65;;
69608;Laerm;57251;52.248;4.812;2023-02-07T07:23:45;51.39;43.12;57.30;;
69608;Laerm;57251;52.248;4.812;2023-02-07T07:23:56;64.88;54.37;69.76;;
69608;Laerm;57251;52.248;4.812;2023-02-07T07:24:07;67.63;61.25;71.21;;
69608;Laerm;57251;52.248;4.812;2023-02-07T07:24:17;60.82;54.13;65.52;;
69608;Laerm;57251;52.248;4.812;2023-02-07T07:24:28;54.54;47.89;60.42;;
69608;Laerm;57251;52.248;4.812;2023-02-07T07:24:38;51.23;46.78;58.51;;
69608;Laerm;57251;52.248;4.812;2023-02-07T07:24:49;54.33;48.03;60.49;;
69608;Laerm;57251;52.248;4.812;2023-02-07T07:24:59;52.51;46.42;58.21;;
69608;Laerm;57251;52.248;4.812;2023-02-07T07:25:11;55.88;46.87;62.35;;
69608;Laerm;57251;52.248;4.812;2023-02-07T07:25:24;66.05;60.14;71.88;;
69608;Laerm;57251;52.248;4.812;2023-02-07T07:25:34;62.50;52.08;69.07;;
69608;Laerm;57251;52.248;4.812;2023-02-07T07:25:45;54.64;46.49;67.02;;
69608;Laerm;57251;52.248;4.812;2023-02-07T07:25:55;53.46;44.51;68.35;;
69608;Laerm;57251;52.248;4.812;2023-02-07T07:26:06;49.10;42.86;55.69;;
69608;Laerm;57251;52.248;4.812;2023-02-07T07:26:16;48.17;42.85;55.26;;
69608;Laerm;57251;52.248;4.812;2023-02-07T07:26:26;47.86;42.31;54.25;;
69608;Laerm;57251;52.248;4.812;2023-02-07T07:26:37;49.67;43.07;61.56;;
69608;Laerm;57251;52.248;4.812;2023-02-07T07:26:47;52.19;46.85;57.50;;
69608;Laerm;57251;52.248;4.812;2023-02-07T07:26:58;59.56;53.00;64.86;;
69608;Laerm;57251;52.248;4.812;2023-02-07T07:27:08;65.30;61.07;68.70;;
69608;Laerm;57251;52.248;4.812;2023-02-07T07:27:25;59.62;50.02;67.51;;
69608;Laerm;57251;52.248;4.812;2023-02-07T07:27:35;55.24;48.43;65.52;;
69608;Laerm;57251;52.248;4.812;2023-02-07T07:27:46;52.42;43.51;64.84;;
69608;Laerm;57251;52.248;4.812;2023-02-07T07:27:56;48.24;43.16;62.78;;
69608;Laerm;57251;52.248;4.812;2023-02-07T07:28:08;47.08;42.29;54.88;;
69608;Laerm;57251;52.248;4.812;2023-02-07T07:28:18;46.66;41.92;56.59;;
69608;Laerm;57251;52.248;4.812;2023-02-07T07:28:29;45.74;42.08;53.35;;
69608;Laerm;57251;52.248;4.812;2023-02-07T07:28:39;45.50;41.14;51.48;;
69608;Laerm;57251;52.248;4.812;2023-02-07T07:28:55;54.54;44.50;63.58;;
69608;Laerm;57251;52.248;4.812;2023-02-07T07:29:09;64.76;59.01;68.81;;
69608;Laerm;57251;52.248;4.812;2023-02-07T07:29:19;64.55;57.23;71.15;;
69608;Laerm;57251;52.248;4.812;2023-02-07T07:29:32;57.87;49.02;70.38;;
69608;Laerm;57251;52.248;4.812;2023-02-07T07:29:46;50.64;46.06;59.21;;
69608;Laerm;57251;52.248;4.812;2023-02-07T07:29:56;48.74;44.48;59.41;;
69608;Laerm;57251;52.248;4.812;2023-02-07T07:30:06;49.79;43.17;64.52;;
69608;Laerm;57251;52.248;4.812;2023-02-07T07:30:18;48.94;43.17;59.11;;
69608;Laerm;57251;52.248;4.812;2023-02-07T07:30:28;48.07;43.22;57.89;;
69608;Laerm;57251;52.248;4.812;2023-02-07T07:30:39;47.99;43.67;56.54;;
69608;Laerm;57251;52.248;4.812;2023-02-07T07:30:49;49.50;46.36;54.84;;
69608;Laerm;57251;52.248;4.812;2023-02-07T07:31:03;51.67;46.50;60.50;;
69608;Laerm;57251;52.248;4.812;2023-02-07T07:31:14;55.23;47.43;65.39;;
69608;Laerm;57251;52.248;4.812;2023-02-07T07:31:25;61.14;55.60;68.40;;
69608;Laerm;57251;52.248;4.812;2023-02-07T07:31:35;61.38;54.00;68.38;;
69608;Laerm;57251;52.248;4.812;2023-02-07T07:31:45;57.49;51.05;66.53;;
69608;Laerm;57251;52.248;4.812;2023-02-07T07:31:56;53.61;47.06;63.64;;
69608;Laerm;57251;52.248;4.812;2023-02-07T07:32:10;54.55;46.69;66.66;;
69608;Laerm;57251;52.248;4.812;2023-02-07T07:32:27;54.06;44.90;64.72;;
69608;Laerm;57251;52.248;4.812;2023-02-07T07:32:37;63.00;49.56;69.59;;
69608;Laerm;57251;52.248;4.812;2023-02-07T07:32:48;69.25;65.81;71.94;;
69608;Laerm;57251;52.248;4.812;2023-02-07T07:35:12;65.86;50.67;80.56;;
69608;Laerm;57251;52.248;4.812;2023-02-07T07:35:22;57.72;53.58;62.02;;
69608;Laerm;57251;52.248;4.812;2023-02-07T07:35:36;58.78;48.73;63.08;;
69608;Laerm;57251;52.248;4.812;2023-02-07T07:35:46;49.13;44.37;56.34;;
69608;Laerm;57251;52.248;4.812;2023-02-07T07:35:57;51.66;46.26;58.81;;
69608;Laerm;57251;52.248;4.812;2023-02-07T07:36:13;52.20;47.01;59.70;;
69608;Laerm;57251;52.248;4.812;2023-02-07T07:36:23;66.95;54.32;72.33;;
69608;Laerm;57251;52.248;4.812;2023-02-07T07:36:34;69.76;62.69;73.34;;
69608;Laerm;57251;52.248;4.812;2023-02-07T07:36:44;61.67;54.09;72.83;;
69608;Laerm;57251;52.248;4.812;2023-02-07T07:36:57;55.96;51.64;69.42;;
69608;Laerm;57251;52.248;4.812;2023-02-07T07:37:13;54.84;50.40;60.74;;
69608;Laerm;57251;52.248;4.812;2023-02-07T07:37:23;53.45;48.03;60.31;;
69608;Laerm;57251;52.248;4.812;2023-02-07T07:37:34;55.02;51.26;60.14;;
69608;Laerm;57251;52.248;4.812;2023-02-07T07:37:44;59.61;54.76;64.84;;
69608;Laerm;57251;52.248;4.812;2023-02-07T07:37:54;65.43;61.89;68.36;;
69608;Laerm;57251;52.248;4.812;2023-02-07T07:38:05;61.68;55.95;67.87;;
69608;Laerm;57251;52.248;4.812;2023-02-07T07:38:18;56.93;53.12;64.62;;
69608;Laerm;57251;52.248;4.812;2023-02-07T07:38:34;59.65;52.94;69.65;;